sensor_id;sensor_type;location;lat;lon;timestamp;P1;durP1;ratioP1;P2;durP2;ratioP2
84054;SDS011;74141;51.504;7.122;2024-03-22T00:01:44;40.75;;;17.52;;
84054;SDS011;74141;51.504;7.122;2024-03-22T00:04:10;35.83;;;16.60;;
84054;SDS011;74141;51.504;7.122;2024-03-22T00:06:36;31.67;;;16.65;;
84054;SDS011;74141;51.504;7.122;2024-03-22T00:09:01;32.95;;;16.15;;
84054;SDS011;74141;51.504;7.122;2024-03-22T00:11:26;32.03;;;16.13;;
84054;SDS011;74141;51.504;7.122;2024-03-22T00:13:52;35.67;;;16.65;;
84054;SDS011;74141;51.504;7.122;2024-03-22T00:16:17;33.50;;;16.27;;
84054;SDS011;74141;51.504;7.122;2024-03-22T00:18:42;39.33;;;15.30;;
84054;SDS011;74141;51.504;7.122;2024-03-22T00:21:07;30.60;;;15.33;;
84054;SDS011;74141;51.504;7.122;2024-03-22T00:23:33;36.57;;;16.30;;
84054;SDS011;74141;51.504;7.122;2024-03-22T00:25:59;31.77;;;15.60;;
84054;SDS011;74141;51.504;7.122;2024-03-22T00:28:24;40.72;;;17.98;;
84054;SDS011;74141;51.504;7.122;2024-03-22T00:30:50;32.80;;;15.93;;
84054;SDS011;74141;51.504;7.122;2024-03-22T00:33:15;36.13;;;17.13;;
84054;SDS011;74141;51.504;7.122;2024-03-22T00:35:40;29.20;;;15.87;;
84054;SDS011;74141;51.504;7.122;2024-03-22T00:38:05;34.40;;;16.40;;
84054;SDS011;74141;51.504;7.122;2024-03-22T00:40:30;32.80;;;16.17;;
84054;SDS011;74141;51.504;7.122;2024-03-22T00:42:56;34.90;;;16.17;;
84054;SDS011;74141;51.504;7.122;2024-03-22T00:45:21;31.43;;;15.30;;
84054;SDS011;74141;51.504;7.122;2024-03-22T00:47:46;28.00;;;15.27;;
84054;SDS011;74141;51.504;7.122;2024-03-22T00:50:12;31.93;;;15.63;;
84054;SDS011;74141;51.504;7.122;2024-03-22T00:52:37;35.00;;;16.73;;
84054;SDS011;74141;51.504;7.122;2024-03-22T00:55:03;35.58;;;16.70;;
84054;SDS011;74141;51.504;7.122;2024-03-22T00:57:29;33.30;;;16.25;;
84054;SDS011;74141;51.504;7.122;2024-03-22T00:59:54;34.30;;;15.57;;
84054;SDS011;74141;51.504;7.122;2024-03-22T01:02:19;34.57;;;15.00;;
84054;SDS011;74141;51.504;7.122;2024-03-22T01:04:44;32.43;;;16.73;;
84054;SDS011;74141;51.504;7.122;2024-03-22T01:07:10;32.87;;;15.87;;
84054;SDS011;74141;51.504;7.122;2024-03-22T01:09:35;34.43;;;17.50;;
84054;SDS011;74141;51.504;7.122;2024-03-22T01:12:00;33.00;;;15.90;;
84054;SDS011;74141;51.504;7.122;2024-03-22T01:14:26;34.67;;;16.75;;
84054;SDS011;74141;51.504;7.122;2024-03-22T01:16:51;35.83;;;16.85;;
84054;SDS011;74141;51.504;7.122;2024-03-22T01:19:16;37.50;;;17.05;;
84054;SDS011;74141;51.504;7.122;2024-03-22T01:21:41;34.97;;;15.73;;
84054;SDS011;74141;51.504;7.122;2024-03-22T01:24:07;39.47;;;16.30;;
84054;SDS011;74141;51.504;7.122;2024-03-22T01:26:32;34.80;;;16.30;;
84054;SDS011;74141;51.504;7.122;2024-03-22T01:28:57;39.60;;;17.50;;
84054;SDS011;74141;51.504;7.122;2024-03-22T01:31:22;35.80;;;16.10;;
84054;SDS011;74141;51.504;7.122;2024-03-22T01:33:48;36.80;;;17.90;;
84054;SDS011;74141;51.504;7.122;2024-03-22T01:36:13;31.93;;;15.87;;
84054;SDS011;74141;51.504;7.122;2024-03-22T01:38:38;35.33;;;17.07;;
84054;SDS011;74141;51.504;7.122;2024-03-22T01:41:04;35.40;;;17.37;;
84054;SDS011;74141;51.504;7.122;2024-03-22T01:43:29;37.83;;;15.53;;
84054;SDS011;74141;51.504;7.122;2024-03-22T01:45:54;36.80;;;16.92;;
84054;SDS011;74141;51.504;7.122;2024-03-22T01:48:19;36.42;;;16.95;;
84054;SDS011;74141;51.504;7.122;2024-03-22T01:50:45;32.60;;;15.55;;
84054;SDS011;74141;51.504;7.122;2024-03-22T01:53:11;33.08;;;17.02;;
84054;SDS011;74141;51.504;7.122;2024-03-22T01:55:37;33.60;;;16.48;;
84054;SDS011;74141;51.504;7.122;2024-03-22T01:58:02;34.75;;;18.45;;
84054;SDS011;74141;51.504;7.122;2024-03-22T02:00:29;38.45;;;16.95;;
84054;SDS011;74141;51.504;7.122;2024-03-22T02:02:55;34.25;;;16.95;;
84054;SDS011;74141;51.504;7.122;2024-03-22T02:05:21;31.73;;;15.38;;
84054;SDS011;74141;51.504;7.122;2024-03-22T02:07:46;34.17;;;15.95;;
84054;SDS011;74141;51.504;7.122;2024-03-22T02:10:15;30.33;;;17.20;;
84054;SDS011;74141;51.504;7.122;2024-03-22T02:12:41;34.13;;;15.82;;
84054;SDS011;74141;51.504;7.122;2024-03-22T02:15:12;28.48;;;15.55;;
84054;SDS011;74141;51.504;7.122;2024-03-22T02:17:37;31.40;;;16.27;;
84054;SDS011;74141;51.504;7.122;2024-03-22T02:20:12;34.03;;;16.30;;
84054;SDS011;74141;51.504;7.122;2024-03-22T02:22:37;34.20;;;16.42;;
84054;SDS011;74141;51.504;7.122;2024-03-22T02:25:12;32.75;;;15.40;;
84054;SDS011;74141;51.504;7.122;2024-03-22T02:27:38;39.15;;;16.20;;
84054;SDS011;74141;51.504;7.122;2024-03-22T02:30:13;33.50;;;15.70;;
84054;SDS011;74141;51.504;7.122;2024-03-22T02:32:38;32.63;;;15.85;;
84054;SDS011;74141;51.504;7.122;2024-03-22T02:35:14;36.05;;;16.90;;
84054;SDS011;74141;51.504;7.122;2024-03-22T02:37:39;39.20;;;17.63;;
84054;SDS011;74141;51.504;7.122;2024-03-22T02:40:13;33.00;;;16.25;;
84054;SDS011;74141;51.504;7.122;2024-03-22T02:42:39;32.97;;;15.07;;
84054;SDS011;74141;51.504;7.122;2024-03-22T02:45:13;32.03;;;15.33;;
84054;SDS011;74141;51.504;7.122;2024-03-22T02:47:38;35.10;;;15.95;;
84054;SDS011;74141;51.504;7.122;2024-03-22T02:50:13;31.23;;;16.43;;
84054;SDS011;74141;51.504;7.122;2024-03-22T02:52:38;41.42;;;17.00;;
84054;SDS011;74141;51.504;7.122;2024-03-22T02:55:12;36.22;;;17.23;;
84054;SDS011;74141;51.504;7.122;2024-03-22T02:57:38;34.72;;;16.08;;
84054;SDS011;74141;51.504;7.122;2024-03-22T03:00:03;34.97;;;17.43;;
84054;SDS011;74141;51.504;7.122;2024-03-22T03:02:30;31.88;;;15.95;;
84054;SDS011;74141;51.504;7.122;2024-03-22T03:04:55;35.42;;;17.10;;
84054;SDS011;74141;51.504;7.122;2024-03-22T03:07:20;35.87;;;17.60;;
84054;SDS011;74141;51.504;7.122;2024-03-22T03:09:45;32.27;;;16.07;;
84054;SDS011;74141;51.504;7.122;2024-03-22T03:12:11;39.50;;;16.97;;
84054;SDS011;74141;51.504;7.122;2024-03-22T03:14:36;38.03;;;17.08;;
84054;SDS011;74141;51.504;7.122;2024-03-22T03:17:01;34.67;;;15.95;;
84054;SDS011;74141;51.504;7.122;2024-03-22T03:19:27;32.28;;;15.75;;
84054;SDS011;74141;51.504;7.122;2024-03-22T03:21:52;30.15;;;15.65;;
84054;SDS011;74141;51.504;7.122;2024-03-22T03:24:17;29.92;;;16.10;;
84054;SDS011;74141;51.504;7.122;2024-03-22T03:26:43;34.37;;;16.70;;
84054;SDS011;74141;51.504;7.122;2024-03-22T03:29:11;33.17;;;16.50;;
84054;SDS011;74141;51.504;7.122;2024-03-22T03:31:36;35.05;;;16.00;;
84054;SDS011;74141;51.504;7.122;2024-03-22T03:34:02;34.47;;;17.05;;
84054;SDS011;74141;51.504;7.122;2024-03-22T03:36:27;36.05;;;17.67;;
84054;SDS011;74141;51.504;7.122;2024-03-22T03:38:52;32.08;;;16.05;;
84054;SDS011;74141;51.504;7.122;2024-03-22T03:41:17;39.90;;;17.63;;
84054;SDS011;74141;51.504;7.122;2024-03-22T03:43:43;34.78;;;17.27;;
84054;SDS011;74141;51.504;7.122;2024-03-22T03:46:08;34.63;;;16.43;;
84054;SDS011;74141;51.504;7.122;2024-03-22T03:48:33;29.90;;;15.27;;
84054;SDS011;74141;51.504;7.122;2024-03-22T03:50:59;30.40;;;17.70;;
84054;SDS011;74141;51.504;7.122;2024-03-22T03:53:28;31.25;;;15.43;;
84054;SDS011;74141;51.504;7.122;2024-03-22T03:55:53;37.45;;;17.52;;
84054;SDS011;74141;51.504;7.122;2024-03-22T03:58:18;32.72;;;15.77;;
84054;SDS011;74141;51.504;7.122;2024-03-22T04:00:44;36.73;;;15.93;;
84054;SDS011;74141;51.504;7.122;2024-03-22T04:03:09;38.63;;;16.75;;
84054;SDS011;74141;51.504;7.122;2024-03-22T04:05:35;32.53;;;15.27;;
84054;SDS011;74141;51.504;7.122;2024-03-22T04:08:00;35.70;;;16.60;;
84054;SDS011;74141;51.504;7.122;2024-03-22T04:10:25;33.60;;;16.30;;
84054;SDS011;74141;51.504;7.122;2024-03-22T04:12:50;32.23;;;16.50;;
84054;SDS011;74141;51.504;7.122;2024-03-22T04:15:16;34.13;;;16.50;;
84054;SDS011;74141;51.504;7.122;2024-03-22T04:17:41;32.83;;;15.18;;
84054;SDS011;74141;51.504;7.122;2024-03-22T04:20:06;31.37;;;14.70;;
84054;SDS011;74141;51.504;7.122;2024-03-22T04:22:33;33.70;;;16.65;;
84054;SDS011;74141;51.504;7.122;2024-03-22T04:24:58;34.67;;;19.27;;
84054;SDS011;74141;51.504;7.122;2024-03-22T04:27:24;33.90;;;15.90;;
84054;SDS011;74141;51.504;7.122;2024-03-22T04:29:49;37.87;;;16.53;;
84054;SDS011;74141;51.504;7.122;2024-03-22T04:32:14;29.77;;;15.40;;
84054;SDS011;74141;51.504;7.122;2024-03-22T04:34:43;28.88;;;15.13;;
84054;SDS011;74141;51.504;7.122;2024-03-22T04:37:08;29.73;;;16.98;;
84054;SDS011;74141;51.504;7.122;2024-03-22T04:39:34;32.35;;;14.82;;
84054;SDS011;74141;51.504;7.122;2024-03-22T04:42:00;27.55;;;14.68;;
84054;SDS011;74141;51.504;7.122;2024-03-22T04:44:25;28.07;;;15.20;;
84054;SDS011;74141;51.504;7.122;2024-03-22T04:46:50;28.50;;;14.50;;
84054;SDS011;74141;51.504;7.122;2024-03-22T04:49:16;29.63;;;14.20;;
84054;SDS011;74141;51.504;7.122;2024-03-22T04:51:41;29.33;;;14.43;;
84054;SDS011;74141;51.504;7.122;2024-03-22T04:54:07;26.10;;;14.23;;
84054;SDS011;74141;51.504;7.122;2024-03-22T04:56:32;28.83;;;13.77;;
84054;SDS011;74141;51.504;7.122;2024-03-22T04:58:57;29.90;;;14.80;;
84054;SDS011;74141;51.504;7.122;2024-03-22T05:01:22;24.60;;;14.13;;
84054;SDS011;74141;51.504;7.122;2024-03-22T05:03:49;28.92;;;14.85;;
84054;SDS011;74141;51.504;7.122;2024-03-22T05:06:14;26.20;;;13.98;;
84054;SDS011;74141;51.504;7.122;2024-03-22T05:08:40;33.85;;;17.20;;
84054;SDS011;74141;51.504;7.122;2024-03-22T05:11:06;29.27;;;14.65;;
84054;SDS011;74141;51.504;7.122;2024-03-22T05:13:32;26.38;;;13.15;;
84054;SDS011;74141;51.504;7.122;2024-03-22T05:15:57;27.42;;;14.00;;
84054;SDS011;74141;51.504;7.122;2024-03-22T05:18:22;32.15;;;14.65;;
84054;SDS011;74141;51.504;7.122;2024-03-22T05:20:48;28.30;;;16.30;;
84054;SDS011;74141;51.504;7.122;2024-03-22T05:23:13;25.48;;;14.30;;
84054;SDS011;74141;51.504;7.122;2024-03-22T05:25:38;25.05;;;13.80;;
84054;SDS011;74141;51.504;7.122;2024-03-22T05:28:04;29.90;;;14.02;;
84054;SDS011;74141;51.504;7.122;2024-03-22T05:30:29;25.05;;;13.38;;
84054;SDS011;74141;51.504;7.122;2024-03-22T05:32:54;26.47;;;15.30;;
84054;SDS011;74141;51.504;7.122;2024-03-22T05:35:19;26.50;;;14.20;;
84054;SDS011;74141;51.504;7.122;2024-03-22T05:37:45;28.83;;;12.03;;
84054;SDS011;74141;51.504;7.122;2024-03-22T05:40:10;28.48;;;13.27;;
84054;SDS011;74141;51.504;7.122;2024-03-22T05:42:37;26.30;;;12.55;;
84054;SDS011;74141;51.504;7.122;2024-03-22T05:45:02;22.70;;;12.70;;
84054;SDS011;74141;51.504;7.122;2024-03-22T05:47:28;27.25;;;14.23;;
84054;SDS011;74141;51.504;7.122;2024-03-22T05:49:53;25.48;;;13.00;;
84054;SDS011;74141;51.504;7.122;2024-03-22T05:52:18;24.50;;;14.00;;
84054;SDS011;74141;51.504;7.122;2024-03-22T05:54:44;24.55;;;13.30;;
84054;SDS011;74141;51.504;7.122;2024-03-22T05:57:09;23.80;;;12.65;;
84054;SDS011;74141;51.504;7.122;2024-03-22T05:59:35;22.42;;;12.13;;
84054;SDS011;74141;51.504;7.122;2024-03-22T06:02:00;24.45;;;13.48;;
84054;SDS011;74141;51.504;7.122;2024-03-22T06:04:26;25.42;;;12.88;;
84054;SDS011;74141;51.504;7.122;2024-03-22T06:06:51;22.85;;;13.55;;
84054;SDS011;74141;51.504;7.122;2024-03-22T06:09:17;25.07;;;12.93;;
84054;SDS011;74141;51.504;7.122;2024-03-22T06:11:51;21.42;;;11.68;;
84054;SDS011;74141;51.504;7.122;2024-03-22T06:14:17;21.13;;;11.73;;
84054;SDS011;74141;51.504;7.122;2024-03-22T06:16:42;23.48;;;13.05;;
84054;SDS011;74141;51.504;7.122;2024-03-22T06:19:08;19.80;;;12.53;;
84054;SDS011;74141;51.504;7.122;2024-03-22T06:21:33;22.40;;;12.98;;
84054;SDS011;74141;51.504;7.122;2024-03-22T06:24:01;21.65;;;11.65;;
84054;SDS011;74141;51.504;7.122;2024-03-22T06:26:28;22.40;;;12.55;;
84054;SDS011;74141;51.504;7.122;2024-03-22T06:28:53;23.90;;;12.07;;
84054;SDS011;74141;51.504;7.122;2024-03-22T06:31:19;22.07;;;12.10;;
84054;SDS011;74141;51.504;7.122;2024-03-22T06:33:44;19.83;;;12.67;;
84054;SDS011;74141;51.504;7.122;2024-03-22T06:36:09;23.73;;;11.93;;
84054;SDS011;74141;51.504;7.122;2024-03-22T06:38:34;21.55;;;11.73;;
84054;SDS011;74141;51.504;7.122;2024-03-22T06:41:00;19.00;;;10.88;;
84054;SDS011;74141;51.504;7.122;2024-03-22T06:43:25;19.90;;;11.68;;
84054;SDS011;74141;51.504;7.122;2024-03-22T06:45:50;21.92;;;12.23;;
84054;SDS011;74141;51.504;7.122;2024-03-22T06:48:16;19.17;;;11.43;;
84054;SDS011;74141;51.504;7.122;2024-03-22T06:50:41;19.52;;;11.35;;
84054;SDS011;74141;51.504;7.122;2024-03-22T06:53:07;18.55;;;11.30;;
84054;SDS011;74141;51.504;7.122;2024-03-22T06:55:32;20.40;;;10.30;;
84054;SDS011;74141;51.504;7.122;2024-03-22T06:57:57;18.83;;;12.00;;
84054;SDS011;74141;51.504;7.122;2024-03-22T07:00:23;18.52;;;11.05;;
84054;SDS011;74141;51.504;7.122;2024-03-22T07:02:48;20.63;;;11.77;;
84054;SDS011;74141;51.504;7.122;2024-03-22T07:05:13;18.80;;;11.00;;
84054;SDS011;74141;51.504;7.122;2024-03-22T07:07:38;18.47;;;11.67;;
84054;SDS011;74141;51.504;7.122;2024-03-22T07:10:04;17.95;;;10.20;;
84054;SDS011;74141;51.504;7.122;2024-03-22T07:12:32;18.55;;;10.18;;
84054;SDS011;74141;51.504;7.122;2024-03-22T07:15:01;16.92;;;10.30;;
84054;SDS011;74141;51.504;7.122;2024-03-22T07:17:28;23.13;;;11.32;;
84054;SDS011;74141;51.504;7.122;2024-03-22T07:19:53;19.85;;;10.25;;
84054;SDS011;74141;51.504;7.122;2024-03-22T07:22:19;18.10;;;10.15;;
84054;SDS011;74141;51.504;7.122;2024-03-22T07:24:45;22.77;;;11.30;;
84054;SDS011;74141;51.504;7.122;2024-03-22T07:27:11;17.83;;;10.30;;
84054;SDS011;74141;51.504;7.122;2024-03-22T07:29:36;15.90;;;10.15;;
84054;SDS011;74141;51.504;7.122;2024-03-22T07:32:02;19.27;;;11.15;;
84054;SDS011;74141;51.504;7.122;2024-03-22T07:34:28;19.13;;;10.93;;
84054;SDS011;74141;51.504;7.122;2024-03-22T07:36:53;16.40;;;9.80;;
84054;SDS011;74141;51.504;7.122;2024-03-22T07:39:19;20.70;;;10.83;;
84054;SDS011;74141;51.504;7.122;2024-03-22T07:41:44;19.10;;;10.13;;
84054;SDS011;74141;51.504;7.122;2024-03-22T07:44:09;15.93;;;9.73;;
84054;SDS011;74141;51.504;7.122;2024-03-22T07:46:36;17.23;;;10.48;;
84054;SDS011;74141;51.504;7.122;2024-03-22T07:49:01;15.13;;;10.23;;
84054;SDS011;74141;51.504;7.122;2024-03-22T07:51:29;18.73;;;10.95;;
84054;SDS011;74141;51.504;7.122;2024-03-22T07:53:54;20.55;;;11.77;;
84054;SDS011;74141;51.504;7.122;2024-03-22T07:56:19;16.13;;;9.57;;
84054;SDS011;74141;51.504;7.122;2024-03-22T07:58:45;19.33;;;11.57;;
84054;SDS011;74141;51.504;7.122;2024-03-22T08:01:10;21.25;;;10.82;;
84054;SDS011;74141;51.504;7.122;2024-03-22T08:03:35;20.63;;;11.53;;
84054;SDS011;74141;51.504;7.122;2024-03-22T08:06:00;16.88;;;10.38;;
84054;SDS011;74141;51.504;7.122;2024-03-22T08:08:26;18.73;;;10.70;;
84054;SDS011;74141;51.504;7.122;2024-03-22T08:10:51;14.37;;;9.23;;
84054;SDS011;74141;51.504;7.122;2024-03-22T08:13:16;17.30;;;9.93;;
84054;SDS011;74141;51.504;7.122;2024-03-22T08:15:42;17.08;;;10.93;;
84054;SDS011;74141;51.504;7.122;2024-03-22T08:18:08;18.02;;;10.20;;
84054;SDS011;74141;51.504;7.122;2024-03-22T08:20:34;17.63;;;9.98;;
84054;SDS011;74141;51.504;7.122;2024-03-22T08:22:59;15.00;;;8.88;;
84054;SDS011;74141;51.504;7.122;2024-03-22T08:25:25;19.20;;;10.35;;
84054;SDS011;74141;51.504;7.122;2024-03-22T08:27:50;17.65;;;10.35;;
84054;SDS011;74141;51.504;7.122;2024-03-22T08:32:45;13.50;;;9.20;;
84054;SDS011;74141;51.504;7.122;2024-03-22T08:35:10;14.07;;;8.67;;
84054;SDS011;74141;51.504;7.122;2024-03-22T08:37:35;17.30;;;8.77;;
84054;SDS011;74141;51.504;7.122;2024-03-22T08:40:01;13.43;;;8.07;;
84054;SDS011;74141;51.504;7.122;2024-03-22T08:42:26;14.55;;;8.85;;
84054;SDS011;74141;51.504;7.122;2024-03-22T08:44:51;14.47;;;7.90;;
84054;SDS011;74141;51.504;7.122;2024-03-22T08:47:17;13.38;;;8.25;;
84054;SDS011;74141;51.504;7.122;2024-03-22T08:49:42;15.07;;;8.57;;
84054;SDS011;74141;51.504;7.122;2024-03-22T08:52:09;15.38;;;8.57;;
84054;SDS011;74141;51.504;7.122;2024-03-22T08:54:34;15.30;;;7.93;;
84054;SDS011;74141;51.504;7.122;2024-03-22T08:57:00;13.32;;;8.32;;
84054;SDS011;74141;51.504;7.122;2024-03-22T08:59:25;17.70;;;8.00;;
84054;SDS011;74141;51.504;7.122;2024-03-22T09:01:51;19.20;;;8.10;;
84054;SDS011;74141;51.504;7.122;2024-03-22T09:04:16;13.27;;;8.45;;
84054;SDS011;74141;51.504;7.122;2024-03-22T09:06:42;16.90;;;8.20;;
84054;SDS011;74141;51.504;7.122;2024-03-22T09:09:07;15.07;;;8.37;;
84054;SDS011;74141;51.504;7.122;2024-03-22T09:11:33;13.65;;;7.72;;
84054;SDS011;74141;51.504;7.122;2024-03-22T09:13:58;12.05;;;7.45;;
84054;SDS011;74141;51.504;7.122;2024-03-22T09:16:24;13.05;;;8.00;;
84054;SDS011;74141;51.504;7.122;2024-03-22T09:18:49;14.35;;;7.68;;
84054;SDS011;74141;51.504;7.122;2024-03-22T09:21:14;14.50;;;7.53;;
84054;SDS011;74141;51.504;7.122;2024-03-22T09:23:40;12.82;;;7.40;;
84054;SDS011;74141;51.504;7.122;2024-03-22T09:26:05;14.43;;;7.87;;
84054;SDS011;74141;51.504;7.122;2024-03-22T09:28:30;12.25;;;6.70;;
84054;SDS011;74141;51.504;7.122;2024-03-22T09:30:56;13.80;;;7.88;;
84054;SDS011;74141;51.504;7.122;2024-03-22T09:33:22;12.63;;;7.53;;
84054;SDS011;74141;51.504;7.122;2024-03-22T09:35:47;15.23;;;8.15;;
84054;SDS011;74141;51.504;7.122;2024-03-22T09:38:12;12.95;;;7.15;;
84054;SDS011;74141;51.504;7.122;2024-03-22T09:40:38;14.43;;;7.20;;
84054;SDS011;74141;51.504;7.122;2024-03-22T09:43:04;13.45;;;7.80;;
84054;SDS011;74141;51.504;7.122;2024-03-22T09:45:31;12.98;;;7.65;;
84054;SDS011;74141;51.504;7.122;2024-03-22T09:47:57;15.45;;;7.95;;
84054;SDS011;74141;51.504;7.122;2024-03-22T09:50:23;13.20;;;7.40;;
84054;SDS011;74141;51.504;7.122;2024-03-22T09:52:48;13.13;;;8.20;;
84054;SDS011;74141;51.504;7.122;2024-03-22T09:55:17;16.08;;;7.45;;
84054;SDS011;74141;51.504;7.122;2024-03-22T09:57:47;12.35;;;7.95;;
84054;SDS011;74141;51.504;7.122;2024-03-22T10:00:15;18.05;;;8.65;;
84054;SDS011;74141;51.504;7.122;2024-03-22T10:02:41;13.20;;;6.82;;
84054;SDS011;74141;51.504;7.122;2024-03-22T10:05:07;13.30;;;8.00;;
84054;SDS011;74141;51.504;7.122;2024-03-22T10:07:32;14.90;;;8.00;;
84054;SDS011;74141;51.504;7.122;2024-03-22T10:09:58;15.65;;;7.13;;
84054;SDS011;74141;51.504;7.122;2024-03-22T10:12:24;11.40;;;6.60;;
84054;SDS011;74141;51.504;7.122;2024-03-22T10:14:52;11.27;;;7.43;;
84054;SDS011;74141;51.504;7.122;2024-03-22T10:17:18;12.73;;;7.82;;
84054;SDS011;74141;51.504;7.122;2024-03-22T10:19:43;11.60;;;7.80;;
84054;SDS011;74141;51.504;7.122;2024-03-22T10:22:09;12.05;;;7.53;;
84054;SDS011;74141;51.504;7.122;2024-03-22T10:24:34;12.50;;;7.77;;
84054;SDS011;74141;51.504;7.122;2024-03-22T10:26:59;13.98;;;7.60;;
84054;SDS011;74141;51.504;7.122;2024-03-22T10:29:25;14.98;;;6.95;;
84054;SDS011;74141;51.504;7.122;2024-03-22T10:31:51;13.32;;;7.00;;
84054;SDS011;74141;51.504;7.122;2024-03-22T10:34:17;14.27;;;8.25;;
84054;SDS011;74141;51.504;7.122;2024-03-22T10:36:45;12.77;;;6.38;;
84054;SDS011;74141;51.504;7.122;2024-03-22T10:39:12;13.68;;;6.72;;
84054;SDS011;74141;51.504;7.122;2024-03-22T10:41:40;14.80;;;7.78;;
84054;SDS011;74141;51.504;7.122;2024-03-22T10:44:05;14.03;;;7.27;;
84054;SDS011;74141;51.504;7.122;2024-03-22T10:46:33;12.73;;;7.70;;
84054;SDS011;74141;51.504;7.122;2024-03-22T10:48:59;16.17;;;8.98;;
84054;SDS011;74141;51.504;7.122;2024-03-22T10:53:55;18.55;;;7.85;;
84054;SDS011;74141;51.504;7.122;2024-03-22T10:56:21;13.07;;;8.20;;
84054;SDS011;74141;51.504;7.122;2024-03-22T10:58:48;14.50;;;8.40;;
84054;SDS011;74141;51.504;7.122;2024-03-22T11:01:24;16.38;;;8.25;;
84054;SDS011;74141;51.504;7.122;2024-03-22T11:03:50;16.77;;;8.10;;
84054;SDS011;74141;51.504;7.122;2024-03-22T11:06:19;14.98;;;8.45;;
84054;SDS011;74141;51.504;7.122;2024-03-22T11:08:49;18.38;;;8.55;;
84054;SDS011;74141;51.504;7.122;2024-03-22T11:11:17;12.40;;;7.80;;
84054;SDS011;74141;51.504;7.122;2024-03-22T11:13:46;12.93;;;7.55;;
84054;SDS011;74141;51.504;7.122;2024-03-22T11:16:12;16.90;;;8.45;;
84054;SDS011;74141;51.504;7.122;2024-03-22T11:18:39;11.75;;;7.65;;
84054;SDS011;74141;51.504;7.122;2024-03-22T11:21:04;12.40;;;7.77;;
84054;SDS011;74141;51.504;7.122;2024-03-22T11:23:32;12.57;;;7.75;;
84054;SDS011;74141;51.504;7.122;2024-03-22T11:25:58;15.90;;;8.35;;
84054;SDS011;74141;51.504;7.122;2024-03-22T11:28:24;14.43;;;8.45;;
84054;SDS011;74141;51.504;7.122;2024-03-22T11:30:49;14.50;;;7.13;;
84054;SDS011;74141;51.504;7.122;2024-03-22T11:33:15;13.05;;;7.25;;
84054;SDS011;74141;51.504;7.122;2024-03-22T11:35:40;11.15;;;7.75;;
84054;SDS011;74141;51.504;7.122;2024-03-22T11:38:06;11.13;;;7.05;;
84054;SDS011;74141;51.504;7.122;2024-03-22T11:40:31;9.48;;;6.82;;
84054;SDS011;74141;51.504;7.122;2024-03-22T11:42:58;15.63;;;7.28;;
84054;SDS011;74141;51.504;7.122;2024-03-22T11:45:25;13.63;;;8.18;;
84054;SDS011;74141;51.504;7.122;2024-03-22T11:47:51;12.38;;;7.82;;
84054;SDS011;74141;51.504;7.122;2024-03-22T11:50:17;15.05;;;8.55;;
84054;SDS011;74141;51.504;7.122;2024-03-22T11:52:42;13.50;;;8.20;;
84054;SDS011;74141;51.504;7.122;2024-03-22T11:55:12;16.35;;;8.35;;
84054;SDS011;74141;51.504;7.122;2024-03-22T11:57:38;15.85;;;8.68;;
84054;SDS011;74141;51.504;7.122;2024-03-22T12:00:04;15.13;;;9.05;;
84054;SDS011;74141;51.504;7.122;2024-03-22T12:02:35;15.38;;;7.80;;
84054;SDS011;74141;51.504;7.122;2024-03-22T12:05:01;14.93;;;8.25;;
84054;SDS011;74141;51.504;7.122;2024-03-22T12:07:28;14.80;;;8.90;;
84054;SDS011;74141;51.504;7.122;2024-03-22T12:09:53;17.13;;;9.45;;
84054;SDS011;74141;51.504;7.122;2024-03-22T12:12:18;13.43;;;8.67;;
84054;SDS011;74141;51.504;7.122;2024-03-22T12:14:47;17.15;;;8.60;;
84054;SDS011;74141;51.504;7.122;2024-03-22T12:17:12;14.18;;;8.77;;
84054;SDS011;74141;51.504;7.122;2024-03-22T12:19:37;11.63;;;7.53;;
84054;SDS011;74141;51.504;7.122;2024-03-22T12:22:03;15.55;;;8.38;;
84054;SDS011;74141;51.504;7.122;2024-03-22T12:24:28;15.77;;;9.43;;
84054;SDS011;74141;51.504;7.122;2024-03-22T12:26:53;13.50;;;7.72;;
84054;SDS011;74141;51.504;7.122;2024-03-22T12:29:19;14.63;;;8.45;;
84054;SDS011;74141;51.504;7.122;2024-03-22T12:31:45;14.75;;;8.88;;
84054;SDS011;74141;51.504;7.122;2024-03-22T12:34:11;15.77;;;9.07;;
84054;SDS011;74141;51.504;7.122;2024-03-22T12:36:37;10.70;;;7.40;;
84054;SDS011;74141;51.504;7.122;2024-03-22T12:39:02;16.63;;;9.67;;
84054;SDS011;74141;51.504;7.122;2024-03-22T12:41:28;15.90;;;9.27;;
84054;SDS011;74141;51.504;7.122;2024-03-22T12:43:54;16.10;;;8.20;;
84054;SDS011;74141;51.504;7.122;2024-03-22T12:46:20;15.60;;;9.32;;
84054;SDS011;74141;51.504;7.122;2024-03-22T12:48:45;19.57;;;9.33;;
84054;SDS011;74141;51.504;7.122;2024-03-22T12:51:10;21.00;;;10.13;;
84054;SDS011;74141;51.504;7.122;2024-03-22T12:53:36;16.98;;;9.38;;
84054;SDS011;74141;51.504;7.122;2024-03-22T12:56:02;14.15;;;8.57;;
84054;SDS011;74141;51.504;7.122;2024-03-22T12:58:29;17.63;;;10.60;;
84054;SDS011;74141;51.504;7.122;2024-03-22T13:00:54;16.92;;;10.07;;
84054;SDS011;74141;51.504;7.122;2024-03-22T13:03:20;17.13;;;10.75;;
84054;SDS011;74141;51.504;7.122;2024-03-22T13:05:45;21.17;;;12.00;;
84054;SDS011;74141;51.504;7.122;2024-03-22T13:08:10;21.55;;;10.75;;
84054;SDS011;74141;51.504;7.122;2024-03-22T13:10:35;18.73;;;10.30;;
84054;SDS011;74141;51.504;7.122;2024-03-22T13:13:01;17.23;;;10.30;;
84054;SDS011;74141;51.504;7.122;2024-03-22T13:15:26;20.48;;;9.70;;
84054;SDS011;74141;51.504;7.122;2024-03-22T13:17:51;19.33;;;10.95;;
84054;SDS011;74141;51.504;7.122;2024-03-22T13:20:21;18.02;;;9.80;;
84054;SDS011;74141;51.504;7.122;2024-03-22T13:22:46;17.73;;;10.35;;
84054;SDS011;74141;51.504;7.122;2024-03-22T13:25:12;17.17;;;10.43;;
84054;SDS011;74141;51.504;7.122;2024-03-22T13:27:37;21.08;;;13.35;;
84054;SDS011;74141;51.504;7.122;2024-03-22T13:30:06;22.00;;;11.77;;
84054;SDS011;74141;51.504;7.122;2024-03-22T13:32:35;22.38;;;12.32;;
84054;SDS011;74141;51.504;7.122;2024-03-22T13:35:01;19.77;;;12.30;;
84054;SDS011;74141;51.504;7.122;2024-03-22T13:37:27;18.25;;;10.45;;
84054;SDS011;74141;51.504;7.122;2024-03-22T13:39:52;18.10;;;10.10;;
84054;SDS011;74141;51.504;7.122;2024-03-22T13:42:17;17.23;;;10.97;;
84054;SDS011;74141;51.504;7.122;2024-03-22T13:44:44;18.33;;;11.38;;
84054;SDS011;74141;51.504;7.122;2024-03-22T13:47:10;14.40;;;9.57;;
84054;SDS011;74141;51.504;7.122;2024-03-22T13:49:35;15.43;;;10.50;;
84054;SDS011;74141;51.504;7.122;2024-03-22T13:52:01;16.67;;;9.65;;
84054;SDS011;74141;51.504;7.122;2024-03-22T13:54:26;16.80;;;9.32;;
84054;SDS011;74141;51.504;7.122;2024-03-22T13:56:51;19.17;;;11.90;;
84054;SDS011;74141;51.504;7.122;2024-03-22T13:59:17;20.95;;;12.30;;
84054;SDS011;74141;51.504;7.122;2024-03-22T14:01:42;18.08;;;11.60;;
84054;SDS011;74141;51.504;7.122;2024-03-22T14:04:10;19.15;;;11.43;;
84054;SDS011;74141;51.504;7.122;2024-03-22T14:06:36;13.27;;;9.80;;
84054;SDS011;74141;51.504;7.122;2024-03-22T14:09:02;13.25;;;10.05;;
84054;SDS011;74141;51.504;7.122;2024-03-22T14:11:29;17.45;;;10.35;;
84054;SDS011;74141;51.504;7.122;2024-03-22T14:13:56;15.48;;;9.45;;
84054;SDS011;74141;51.504;7.122;2024-03-22T14:16:22;16.67;;;9.70;;
84054;SDS011;74141;51.504;7.122;2024-03-22T14:18:47;16.33;;;10.82;;
84054;SDS011;74141;51.504;7.122;2024-03-22T14:21:14;17.75;;;10.70;;
84054;SDS011;74141;51.504;7.122;2024-03-22T14:23:43;15.32;;;10.00;;